sensor_id;sensor_type;location;lat;lon;timestamp;pressure;altitude;pressure_sealevel;temperature;humidity
54918;BME280;40818;50.562;7.454;2024-01-25T08:20:11;98986.66;;;3.20;100.00
54918;BME280;40818;50.562;7.454;2024-01-25T08:30:15;98986.94;;;4.06;100.00
54918;BME280;40818;50.562;7.454;2024-01-25T08:40:21;98974.63;;;5.03;100.00
54918;BME280;40818;50.562;7.454;2024-01-25T08:50:25;98979.97;;;6.01;100.00
54918;BME280;40818;50.562;7.454;2024-01-25T09:00:31;98979.75;;;6.40;100.00
54918;BME280;40818;50.562;7.454;2024-01-25T09:10:34;98993.41;;;6.73;100.00
54918;BME280;40818;50.562;7.454;2024-01-25T09:20:40;98980.47;;;7.03;100.00
54918;BME280;40818;50.562;7.454;2024-01-25T09:30:48;98983.28;;;7.24;100.00
54918;BME280;40818;50.562;7.454;2024-01-25T09:40:54;98984.88;;;7.55;100.00
54918;BME280;40818;50.562;7.454;2024-01-25T09:50:59;99006.34;;;7.82;100.00
54918;BME280;40818;50.562;7.454;2024-01-25T10:01:10;99027.97;;;7.79;100.00
54918;BME280;40818;50.562;7.454;2024-01-25T10:11:14;99010.56;;;7.84;100.00
54918;BME280;40818;50.562;7.454;2024-01-25T10:21:21;99022.09;;;8.01;100.00
54918;BME280;40818;50.562;7.454;2024-01-25T10:31:24;99028.34;;;8.44;100.00
54918;BME280;40818;50.562;7.454;2024-01-25T10:41:31;99016.88;;;8.75;100.00
54918;BME280;40818;50.562;7.454;2024-01-25T10:51:35;99007.41;;;8.98;100.00
54918;BME280;40818;50.562;7.454;2024-01-25T11:01:45;98998.22;;;9.55;100.00
54918;BME280;40818;50.562;7.454;2024-01-25T11:11:49;98990.84;;;10.08;100.00
54918;BME280;40818;50.562;7.454;2024-01-25T11:21:55;98982.09;;;10.11;99.09
54918;BME280;40818;50.562;7.454;2024-01-25T11:31:58;98956.97;;;10.11;94.00
54918;BME280;40818;50.562;7.454;2024-01-25T11:42:05;98949.13;;;10.52;95.07
54918;BME280;40818;50.562;7.454;2024-01-25T11:52:08;98948.94;;;11.48;92.13
54918;BME280;40818;50.562;7.454;2024-01-25T12:02:15;98927.09;;;11.85;85.47
54918;BME280;40818;50.562;7.454;2024-01-25T12:12:19;98915.78;;;12.36;81.51
54918;BME280;40818;50.562;7.454;2024-01-25T12:22:27;98904.63;;;12.97;79.02
54918;BME280;40818;50.562;7.454;2024-01-25T12:32:31;98884.41;;;13.01;70.02
54918;BME280;40818;50.562;7.454;2024-01-25T12:42:37;98873.97;;;12.71;73.30
54918;BME280;40818;50.562;7.454;2024-01-25T12:52:40;98876.06;;;12.48;71.37
54918;BME280;40818;50.562;7.454;2024-01-25T13:02:46;98880.09;;;12.22;72.59
54918;BME280;40818;50.562;7.454;2024-01-25T13:12:50;98863.13;;;11.81;70.59
54918;BME280;40818;50.562;7.454;2024-01-25T13:22:56;98857.13;;;11.63;68.49
54918;BME280;40818;50.562;7.454;2024-01-25T13:32:59;98848.75;;;11.23;72.25
54918;BME280;40818;50.562;7.454;2024-01-25T13:43:06;98838.91;;;11.12;77.17
54918;BME280;40818;50.562;7.454;2024-01-25T13:53:09;98839.53;;;10.63;78.84
54918;BME280;40818;50.562;7.454;2024-01-25T14:03:16;98807.25;;;10.13;82.24
54918;BME280;40818;50.562;7.454;2024-01-25T14:13:20;98806.97;;;10.00;84.22
54918;BME280;40818;50.562;7.454;2024-01-25T14:36:44;98791.50;;;8.58;93.11
54918;BME280;40818;50.562;7.454;2024-01-25T14:46:47;98790.97;;;8.03;99.77
54918;BME280;40818;50.562;7.454;2024-01-25T14:56:53;98786.16;;;7.71;100.00
54918;BME280;40818;50.562;7.454;2024-01-25T15:06:57;98775.69;;;7.51;100.00
54918;BME280;40818;50.562;7.454;2024-01-25T15:17:03;98779.28;;;7.47;100.00
54918;BME280;40818;50.562;7.454;2024-01-25T15:27:07;98771.03;;;7.60;100.00
54918;BME280;40818;50.562;7.454;2024-01-25T15:37:13;98769.75;;;7.48;100.00
54918;BME280;40818;50.562;7.454;2024-01-25T15:47:17;98757.91;;;7.42;100.00
54918;BME280;40818;50.562;7.454;2024-01-25T15:57:23;98748.97;;;7.51;100.00
54918;BME280;40818;50.562;7.454;2024-01-25T16:07:26;98744.09;;;7.43;100.00
54918;BME280;40818;50.562;7.454;2024-01-25T16:17:32;98738.38;;;7.35;100.00
54918;BME280;40818;50.562;7.454;2024-01-25T16:27:36;98737.91;;;7.24;100.00
54918;BME280;40818;50.562;7.454;2024-01-25T16:37:42;98737.00;;;7.25;100.00
54918;BME280;40818;50.562;7.454;2024-01-25T16:47:45;98726.00;;;7.20;100.00
54918;BME280;40818;50.562;7.454;2024-01-25T16:57:51;98726.16;;;7.15;100.00
54918;BME280;40818;50.562;7.454;2024-01-25T17:07:55;98733.19;;;7.11;100.00
54918;BME280;40818;50.562;7.454;2024-01-25T17:18:01;98732.69;;;7.00;100.00
54918;BME280;40818;50.562;7.454;2024-01-25T17:28:04;98724.41;;;6.92;100.00
54918;BME280;40818;50.562;7.454;2024-01-25T17:38:11;98712.00;;;6.76;100.00
54918;BME280;40818;50.562;7.454;2024-01-25T17:48:14;98663.19;;;6.45;100.00
54918;BME280;40818;50.562;7.454;2024-01-25T17:58:21;98681.31;;;6.43;100.00
54918;BME280;40818;50.562;7.454;2024-01-25T18:08:24;98690.72;;;6.44;100.00
54918;BME280;40818;50.562;7.454;2024-01-25T18:18:30;98688.16;;;6.44;100.00
54918;BME280;40818;50.562;7.454;2024-01-25T18:28:34;98689.81;;;6.45;100.00
54918;BME280;40818;50.562;7.454;2024-01-25T18:38:40;98693.31;;;6.44;100.00
54918;BME280;40818;50.562;7.454;2024-01-25T18:48:43;98688.44;;;6.35;100.00
54918;BME280;40818;50.562;7.454;2024-01-25T18:58:50;98688.75;;;6.26;100.00
54918;BME280;40818;50.562;7.454;2024-01-25T19:08:55;98680.13;;;6.27;100.00
54918;BME280;40818;50.562;7.454;2024-01-25T19:19:01;98688.63;;;6.29;100.00
54918;BME280;40818;50.562;7.454;2024-01-25T19:29:05;98687.09;;;6.23;100.00
54918;BME280;40818;50.562;7.454;2024-01-25T19:39:11;98679.53;;;6.19;100.00
54918;BME280;40818;50.562;7.454;2024-01-25T19:49:14;98682.75;;;6.25;100.00
54918;BME280;40818;50.562;7.454;2024-01-25T19:59:21;98687.69;;;6.31;100.00
54918;BME280;40818;50.562;7.454;2024-01-25T20:09:25;98681.59;;;6.34;100.00
54918;BME280;40818;50.562;7.454;2024-01-25T20:19:31;98677.53;;;6.27;100.00
54918;BME280;40818;50.562;7.454;2024-01-25T20:29:34;98675.16;;;6.21;100.00
54918;BME280;40818;50.562;7.454;2024-01-25T20:39:40;98657.16;;;6.19;100.00
54918;BME280;40818;50.562;7.454;2024-01-25T20:49:44;98661.63;;;6.14;100.00
54918;BME280;40818;50.562;7.454;2024-01-25T20:59:50;98653.75;;;6.19;100.00
54918;BME280;40818;50.562;7.454;2024-01-25T21:09:54;98647.88;;;6.40;100.00
54918;BME280;40818;50.562;7.454;2024-01-25T21:20:00;98658.97;;;6.42;100.00
54918;BME280;40818;50.562;7.454;2024-01-25T21:30:07;98658.59;;;6.28;100.00
54918;BME280;40818;50.562;7.454;2024-01-25T21:40:14;98640.56;;;6.28;100.00
54918;BME280;40818;50.562;7.454;2024-01-25T21:50:17;98628.13;;;6.39;100.00
54918;BME280;40818;50.562;7.454;2024-01-25T22:00:23;98640.16;;;6.39;100.00
54918;BME280;40818;50.562;7.454;2024-01-25T22:10:27;98644.13;;;6.49;100.00
54918;BME280;40818;50.562;7.454;2024-01-25T22:20:34;98631.06;;;6.54;100.00
54918;BME280;40818;50.562;7.454;2024-01-25T22:30:37;98644.66;;;6.59;100.00
54918;BME280;40818;50.562;7.454;2024-01-25T22:40:44;98636.03;;;6.60;100.00
54918;BME280;40818;50.562;7.454;2024-01-25T22:50:48;98623.19;;;6.58;100.00
54918;BME280;40818;50.562;7.454;2024-01-25T23:00:54;98623.06;;;6.61;100.00
54918;BME280;40818;50.562;7.454;2024-01-25T23:10:58;98627.38;;;6.61;100.00
54918;BME280;40818;50.562;7.454;2024-01-25T23:21:04;98616.00;;;6.66;100.00
54918;BME280;40818;50.562;7.454;2024-01-25T23:31:07;98610.94;;;6.63;100.00
54918;BME280;40818;50.562;7.454;2024-01-25T23:41:13;98611.81;;;6.64;100.00
54918;BME280;40818;50.562;7.454;2024-01-25T23:51:17;98588.59;;;6.64;100.00
